Latest Weather Observations for Braidwood

IDN60801

Issued at 11:02 am EDT Saturday 3 December 2016 (issued every 30 minutes, with the page automatically refreshed every 10 minutes)

About weather observations | Map of weather stations | Latest weather observations for NSW | Other Formats
Station Details ID: 069132 Name: BRAIDWOOD RACECOURSE AWS Lat: -35.43 Lon: 149.78 Height: 665.2 m
Data from the previous 72 hours. | See also: Recent months at Braidwood
Date/Time
EDT
Temp
°C
App
Temp
°C
Dew
Point
°C
Rel
Hum
%
Delta-T
°C
Wind Press
QNH
hPa
Press
MSL
hPa
Rain since
9am
mm
Dir  Spd
km/h
Gust
km/h
Spd
kts
Gust
kts
03/11:00am 19.2 18.5 12.0 63 4.1 NNE 7 11 4 6 1017.6 1015.3 0.0
03/10:30am 18.5 17.6 12.5 68 3.4 ENE 9 17 5 9 1017.7 1015.4 0.0
03/10:00am 18.2 17.5 12.0 67 3.5 NE 7 13 4 7 1018.0 1015.7 0.0
03/09:30am 17.5 16.8 12.0 70 3.1 NE 7 15 4 8 1017.9 1015.6 0.0
03/09:00am 16.4 15.4 12.2 76 2.4 ENE 9 15 5 8 1017.8 1015.5 0.0
03/08:30am 16.2 14.7 12.0 76 2.4 E 11 17 6 9 1017.7 1015.4 0.0
03/08:00am 15.9 14.6 12.6 81 1.9 ENE 11 13 6 7 1017.7 1015.4 0.0
03/07:30am 15.3 14.6 13.2 87 1.2 E 9 15 5 8 1017.4 1015.1 0.0
03/07:00am 14.5 13.3 12.9 90 0.9 ENE 11 15 6 8 1017.2 1015.0 0.0
03/06:30am 14.2 13.7 12.8 91 0.8 ENE 7 9 4 5 1016.8 1014.5 0.0
03/06:00am 14.0 13.1 12.7 92 0.7 ESE 9 11 5 6 1016.5 1014.2 0.0
03/05:30am 14.0 12.8 12.7 92 0.7 ESE 11 17 6 9 1016.1 1013.8 0.0
03/05:00am 14.0 13.7 12.7 92 0.7 ESE 6 9 3 5 1015.8 1013.5 0.0
03/04:30am 13.9 13.4 12.8 93 0.6 SE 7 11 4 6 1015.5 1013.2 0.0
03/04:00am 13.9 13.1 12.8 93 0.6 SE 9 11 5 6 1015.3 1013.0 0.0
03/03:30am 13.9 12.7 12.8 93 0.6 ESE 11 15 6 8 1015.5 1013.2 0.0
03/03:00am 14.1 13.7 13.0 93 0.6 ESE 7 13 4 7 1015.8 1013.5 0.0
03/02:30am 14.2 13.5 13.1 93 0.6 SSE 9 13 5 7 1015.8 1013.5 0.0
03/02:00am 14.3 13.2 13.2 93 0.6 ESE 11 15 6 8 1016.1 1013.8 0.0
03/01:30am 14.4 13.7 13.1 92 0.7 E 9 15 5 8 1016.2 1013.9 0.0
03/01:00am 14.4 13.4 13.3 93 0.6 E 11 17 6 9 1016.4 1014.1 0.0
03/12:30am 14.3 13.6 13.2 93 0.6 E 9 13 5 7 1016.8 1014.5 0.0
03/12:00am 14.3 14.0 13.2 93 0.6 ESE 7 13 4 7 1016.8 1014.5 0.0
 
Date/Time
EDT
Temp
°C
App
Temp
°C
Dew
Point
°C
Rel
Hum
%
Delta-T
°C
Wind Press
QNH
hPa
Press
MSL
hPa
Rain since
9am
mm
Dir  Spd
km/h
Gust
km/h
Spd
kts
Gust
kts
02/11:30pm 14.3 13.6 13.3 94 0.6 ESE 9 15 5 8 1016.9 1014.6 0.0
02/11:00pm 14.3 12.9 13.3 94 0.6 ESE 13 17 7 9 1016.9 1014.6 0.0
02/10:30pm 14.5 13.5 13.5 94 0.6 ESE 11 15 6 8 1016.8 1014.5 0.0
02/10:00pm 14.6 13.7 13.8 95 0.5 ESE 11 17 6 9 1016.6 1014.3 0.0
02/09:30pm 14.9 13.7 13.9 94 0.6 SE 13 19 7 10 1016.3 1014.0 0.0
02/09:00pm 15.3 13.8 14.2 93 0.6 ESE 15 22 8 12 1015.8 1013.5 0.0
02/08:30pm 15.8 14.3 14.3 91 0.9 SE 15 22 8 12 1015.3 1013.0 0.0
02/08:00pm 16.3 14.5 14.5 89 1.1 SSE 17 24 9 13 1014.9 1012.6 0.0
02/07:30pm 17.0 14.6 14.3 84 1.6 ESE 20 30 11 16 1013.8 1011.5 0.0
02/07:00pm 18.1 15.6 14.2 78 2.3 SE 20 30 11 16 1013.6 1011.3 0.0
02/06:30pm 19.7 17.0 14.7 73 3.0 SE 22 32 12 17 1012.9 1010.5 0.0
02/06:00pm 23.7 21.6 12.4 49 6.7 SW 15 26 8 14 1012.3 1010.0 0.0
02/05:30pm 27.8 22.2 3.5 21 12.5 WNW 22 35 12 19 1011.4 1009.0 0.0
02/05:00pm 28.5 21.9 4.1 21 12.8 WNW 28 41 15 22 1011.3 1008.9 0.0
02/04:30pm 28.6 22.0 4.2 21 12.8 WNW 28 41 15 22 1011.3 1008.9 0.0
02/04:00pm 28.9 22.2 3.7 20 13.2 WNW 28 43 15 23 1011.3 1008.9 0.0
02/03:30pm 28.3 21.6 3.9 21 12.7 WNW 28 41 15 22 1011.4 1009.0 0.0
02/03:00pm 28.1 22.0 3.0 20 12.9 NW 24 39 13 21 1011.3 1008.9 0.0
02/02:30pm 28.8 22.1 3.6 20 13.1 WNW 28 44 15 24 1011.0 1008.6 0.0
02/02:00pm 27.7 22.0 2.7 20 12.7 WNW 22 32 12 17 1011.0 1008.6 0.0
02/01:30pm 27.9 22.3 3.6 21 12.6 WNW 22 39 12 21 1011.0 1008.6 0.0
02/01:00pm 27.9 21.2 3.6 21 12.6 W 28 41 15 22 1010.7 1008.4 0.0
02/12:30pm 27.4 21.5 3.8 22 12.2 W 24 39 13 21 1010.7 1008.4 0.0
02/12:00pm 27.1 21.4 2.9 21 12.3 W 22 39 12 21 1010.7 1008.4 0.0
02/11:30am 26.5 19.3 3.1 22 11.9 WNW 30 43 16 23 1010.8 1008.5 0.0
02/11:00am 26.1 20.3 4.6 25 11.2 W 24 37 13 20 1010.6 1008.3 0.0
02/10:30am 25.1 20.0 3.1 24 11.1 W 19 32 10 17 1011.0 1008.6 0.0
02/10:00am 23.7 20.0 4.6 29 9.8 NW 13 20 7 11 1011.1 1008.7 0.0
02/09:30am 22.4 20.3 5.8 34 8.6 NNW 6 11 3 6 1011.0 1008.6 0.0
02/09:00am 19.9 19.0 7.6 45 6.5 N 2 7 1 4 1011.0 1008.6 0.0
02/08:30am 18.6 16.9 7.4 48 5.9 N 6 11 3 6 1010.5 1008.2 0.0
02/08:00am 18.1 16.4 7.5 50 5.6 N 6 13 3 7 1010.3 1007.9 0.0
02/07:30am 15.8 14.0 7.3 57 4.4 N 6 13 3 7 1010.2 1007.8 0.0
02/07:00am 14.2 12.9 7.7 65 3.3 NNW 4 7 2 4 1010.1 1007.7 0.0
02/06:30am 12.6 11.7 7.9 73 2.4 N 2 6 1 3 1009.7 1007.3 0.0
02/06:00am 11.5 10.9 9.1 85 1.2 N 2 4 1 2 1009.7 1007.3 0.0
02/05:30am 9.5 8.5 8.7 95 0.4 NNW 4 6 2 3 1009.8 1007.4 0.0
02/05:00am 8.3 7.8 7.7 96 0.3 CALM 0 0 0 0 1009.6 1007.2 0.0
02/04:30am 9.0 7.9 8.6 97 0.2 NNW 4 7 2 4 1009.2 1006.9 0.0
02/04:00am 7.6 6.9 7.0 96 0.3 CALM 0 0 0 0 1009.1 1006.8 0.0
02/03:30am 8.0 7.4 7.4 96 0.3 CALM 0 0 0 0 1009.1 1006.8 0.0
02/03:00am 8.0 7.4 7.4 96 0.3 CALM 0 2 0 1 1009.1 1006.8 0.0
02/02:30am 8.4 7.9 7.8 96 0.3 CALM 0 0 0 0 1009.4 1007.0 0.0
02/02:00am 8.4 7.8 7.6 95 0.4 CALM 0 0 0 0 1009.5 1007.1 0.0
02/01:30am 8.7 8.2 7.9 95 0.4 CALM 0 0 0 0 1009.6 1007.2 0.0
02/01:00am 9.5 9.2 8.7 95 0.4 CALM 0 0 0 0 1009.8 1007.4 0.0
02/12:30am 10.4 10.3 9.6 95 0.4 CALM 0 6 0 3 1009.9 1007.5 0.0
02/12:00am 11.0 11.1 10.1 94 0.5 CALM 0 0 0 0 1009.9 1007.5 0.0
 
Date/Time
EDT
Temp
°C
App
Temp
°C
Dew
Point
°C
Rel
Hum
%
Delta-T
°C
Wind Press
QNH
hPa
Press
MSL
hPa
Rain since
9am
mm
Dir  Spd
km/h
Gust
km/h
Spd
kts
Gust
kts
01/11:30pm 12.9 13.6 12.1 95 0.4 CALM 0 0 0 0 1009.9 1007.5 0.0
01/11:00pm 13.6 14.5 13.0 96 0.3 CALM 0 0 0 0 1010.1 1007.7 0.0
01/10:30pm 13.6 14.3 12.3 92 0.7 CALM 0 0 0 0 1010.0 1007.6 0.0
01/10:00pm 14.2 14.0 13.1 93 0.6 SSE 6 7 3 4 1010.1 1007.7 0.0
01/09:30pm 14.8 14.7 13.3 91 0.9 SSE 6 6 3 3 1010.0 1007.6 0.0
01/09:00pm 15.9 15.9 14.3 90 0.9 SE 7 9 4 5 1009.7 1007.3 0.0
01/08:30pm 16.5 15.9 13.4 82 1.8 SE 9 13 5 7 1009.2 1006.9 0.0
01/08:00pm 18.2 18.0 13.5 74 2.8 SE 7 11 4 6 1009.1 1006.8 0.0
01/07:30pm 21.5 21.1 12.9 58 5.1 ESE 7 13 4 7 1008.7 1006.3 0.0
01/07:00pm 24.9 20.2 1.1 21 11.6 WNW 15 24 8 13 1008.3 1005.9 0.0
01/06:30pm 25.4 20.2 0.1 19 12.1 WNW 17 26 9 14 1008.0 1005.6 0.0
01/06:00pm 25.8 20.1 -1.1 17 12.7 WNW 19 30 10 16 1007.6 1005.2 0.0
01/05:30pm 26.5 21.2 -0.5 17 12.9 WNW 17 30 9 16 1007.5 1005.1 0.0
01/05:00pm 27.0 21.2 -0.1 17 13.1 WNW 20 33 11 18 1007.4 1005.0 0.0
01/04:30pm 26.6 20.1 -2.1 15 13.3 WNW 22 33 12 18 1007.4 1005.0 0.0
01/04:00pm 27.2 20.9 -0.8 16 13.4 W 22 32 12 17 1007.5 1005.1 0.0
01/03:30pm 26.9 19.6 -0.2 17 13.0 WNW 28 44 15 24 1007.6 1005.2 0.0
01/03:00pm 27.0 19.4 -1.8 15 13.5 W 28 39 15 21 1007.6 1005.2 0.0
01/02:30pm 26.8 21.1 0.5 18 12.8 W 20 33 11 18 1007.8 1005.4 0.0
01/02:00pm 26.4 19.3 -1.4 16 13.1 WNW 26 39 14 21 1008.0 1005.6 0.0
01/01:30pm 26.5 21.1 2.4 21 12.1 WNW 20 33 11 18 1008.0 1005.6 0.0
01/01:00pm 26.1 21.2 4.0 24 11.4 NW 19 33 10 18 1008.1 1005.7 0.0
01/12:30pm 25.4 20.3 2.8 23 11.4 NW 19 32 10 17 1008.3 1005.9 0.0
01/12:00pm 25.5 20.5 3.5 24 11.2 NW 19 35 10 19 1008.3 1005.9 0.0
01/11:30am 25.0 19.3 4.7 27 10.5 NW 24 39 13 21 1008.4 1006.0 0.0
01/11:00am 24.5 19.7 4.8 28 10.2 NW 19 33 10 18 1008.7 1006.3 0.0
01/10:30am 23.3 18.8 4.3 29 9.7 NW 17 28 9 15 1008.8 1007.1 0.0
01/10:00am 23.1 18.6 6.0 33 9.0 NW 19 30 10 16 1009.1 1007.4 0.0
01/09:30am 22.2 18.6 6.8 37 8.2 NW 15 26 8 14 1009.5 1007.7 0.0
01/09:00am 21.7 18.0 7.9 41 7.4 NW 17 28 9 15 1009.6 1007.8 0.0
01/08:30am 20.5 18.3 9.4 49 6.1 NNW 11 17 6 9 1009.5 1007.7 0.0
01/08:00am 18.1 17.9 11.9 67 3.5 N 4 9 2 5 1009.4 1007.6 0.0
01/07:30am 15.3 15.7 12.6 84 1.5 NW 2 6 1 3 1009.5 1007.7 0.0
01/07:00am 12.2 12.6 11.3 94 0.5 CALM 0 2 0 1 1009.2 1007.5 0.0
01/06:30am 12.4 12.9 11.6 95 0.4 CALM 0 0 0 0 1009.1 1007.4 0.0
01/06:00am 12.6 13.2 12.0 96 0.3 CALM 0 0 0 0 1008.9 1007.2 0.0
01/05:30am 12.8 13.5 12.2 96 0.3 CALM 0 4 0 2 1008.8 1007.1 0.0
01/05:00am 13.0 13.8 12.4 96 0.3 CALM 0 0 0 0 1008.6 1006.8 0.0
01/04:30am 13.1 13.9 12.5 96 0.3 CALM 0 0 0 0 1008.6 1006.8 0.0
01/04:00am 12.9 13.6 12.3 96 0.3 CALM 0 0 0 0 1008.3 1006.5 0.0
01/03:30am 13.0 13.8 12.5 97 0.3 CALM 0 0 0 0 1008.3 1006.5 0.0
01/03:00am 13.2 14.0 12.7 97 0.3 CALM 0 0 0 0 1008.7 1006.9 0.0
01/02:30am 13.1 13.9 12.6 97 0.3 CALM 0 0 0 0 1008.9 1007.2 0.0
01/02:00am 13.1 13.9 12.5 96 0.3 CALM 0 0 0 0 1009.0 1007.3 0.0
01/01:30am 13.5 14.4 12.9 96 0.3 CALM 0 0 0 0 1009.5 1007.7 0.0
01/01:00am 14.1 15.2 13.6 97 0.3 CALM 0 0 0 0 1009.9 1008.1 0.0
01/12:30am 14.5 15.8 14.0 97 0.3 CALM 0 0 0 0 1010.0 1008.2 0.0
01/12:00am 14.8 16.2 14.3 97 0.3 CALM 0 0 0 0 1010.1 1008.3 0.0
 
Date/Time
EDT
Temp
°C
App
Temp
°C
Dew
Point
°C
Rel
Hum
%
Delta-T
°C
Wind Press
QNH
hPa
Press
MSL
hPa
Rain since
9am
mm
Dir  Spd
km/h
Gust
km/h
Spd
kts
Gust
kts
30/11:30pm 14.9 16.3 14.3 96 0.4 CALM 0 0 0 0 1010.2 1008.5 0.0
30/11:00pm 14.9 15.5 14.3 96 0.4 SSE 4 6 2 3 1010.3 1008.6 0.0
30/10:30pm 15.2 15.5 14.6 96 0.4 S 6 7 3 4 1010.4 1008.7 0.0
30/10:00pm 15.1 16.5 14.3 95 0.5 CALM 0 0 0 0 1010.4 1008.7 0.0
30/09:30pm 15.3 15.3 14.3 94 0.6 SSE 7 9 4 5 1010.2 1008.5 0.0
30/09:00pm 15.8 16.1 14.5 92 0.8 SSE 6 9 3 5 1010.3 1008.6 0.0
30/08:30pm 16.6 17.4 14.8 89 1.1 SSE 4 6 2 3 1009.9 1008.1 0.0
30/08:00pm 17.3 17.5 14.6 84 1.6 ESE 7 9 4 5 1009.5 1007.7 0.0
30/07:30pm 19.0 19.0 14.3 74 2.8 ESE 7 13 4 7 1009.7 1007.9 0.0
30/07:00pm 19.9 19.6 14.3 70 3.4 E 9 13 5 7 1009.4 1007.6 0.0
30/06:30pm 19.9 19.6 13.4 66 3.8 ENE 7 11 4 6 1009.0 1007.3 0.0
30/06:00pm 21.0 20.0 12.4 58 5.0 ENE 9 17 5 9 1008.7 1006.9 0.0
30/05:30pm 20.8 19.7 13.0 61 4.6 NE 11 26 6 14 1008.2 1006.4 0.0
30/05:00pm 21.2 18.8 11.5 54 5.6 NE 15 26 8 14 1008.2 1006.4 0.0
30/04:30pm 22.2 19.9 13.0 56 5.4 NE 17 30 9 16 1008.3 1006.5 0.0
30/04:00pm 23.3 19.9 13.8 55 5.7 ENE 24 35 13 19 1008.2 1006.4 0.0
30/03:30pm 23.5 20.3 14.2 56 5.6 E 24 33 13 18 1008.2 1006.4 0.0
30/03:00pm 24.7 24.4 14.5 53 6.2 ENE 9 19 5 10 1009.0 1007.3 0.0
30/02:30pm 26.2 25.4 13.0 44 7.9 NE 9 17 5 9 1009.1 1007.4 0.0
30/02:00pm 25.8 25.6 13.0 45 7.7 NE 6 19 3 10 1009.8 1008.0 0.0
30/01:30pm 24.8 23.6 10.3 40 8.3 NE 7 17 4 9 1010.3 1008.6 0.0
30/01:00pm 25.2 24.4 11.0 41 8.2 NNW 6 17 3 9 1010.7 1009.0 0.0
30/12:30pm 22.6 21.4 10.4 46 6.9 NE 7 15 4 8 1011.3 1009.5 0.0
30/12:00pm 21.4 20.3 10.6 50 6.1 N 7 13 4 7 1011.8 1010.1 0.0
30/11:30am 21.4 20.6 10.9 51 6.0 NNE 6 13 3 7 1012.2 1010.5 0.0

Other Formats:

Comma delimited format used in spreadsheet applications
http://www.bom.gov.au/fwo/IDN60801/IDN60801.94927.axf

JavaScript Object Notation format (JSON) in row-major order
http://www.bom.gov.au/fwo/IDN60801/IDN60801.94927.json